Time;durP1;ratioP1;P1;durP2;ratioP2;P2;SDS_P1;SDS_P2;PMS_P1;PMS_P2;Temp;Humidity;BMP_temperature;BMP_pressure;BME280_temperature;BME280_humidity;BME280_pressure;Samples;Min_cycle;Max_cycle;Signal;HPM_P1;HPM_P2
2023/10/17 00:00:26;;;;;;;2.05;1.60;;;;;;;21.84;29.94;101077.19;4505245;28;20046;-64
2023/10/17 00:02:37;;;;;;;1.45;1.35;;;;;;;21.84;29.55;101073.47;4480123;28;20093;-64
2023/10/17 00:04:47;;;;;;;1.50;1.40;;;;;;;21.88;29.30;101078.13;4505718;28;20553;-64
2023/10/17 00:06:58;;;;;;;1.80;1.40;;;;;;;21.88;29.67;101074.44;4505762;28;20407;-64
2023/10/17 00:09:09;;;;;;;1.98;1.55;;;;;;;21.83;29.37;101072.66;4504699;28;20033;-64
2023/10/17 00:11:23;;;;;;;1.70;1.60;;;;;;;21.85;29.39;101073.09;4506383;28;21251;-64
2023/10/17 00:13:44;;;;;;;1.58;1.30;;;;;;;21.87;29.07;101064.13;4504999;28;20034;-64
2023/10/17 00:15:55;;;;;;;1.40;1.30;;;;;;;21.85;29.70;101058.75;4504142;28;20034;-64
2023/10/17 00:18:11;;;;;;;1.60;1.40;;;;;;;21.84;29.50;101054.19;4506721;28;20033;-64
2023/10/17 00:20:25;;;;;;;1.60;1.50;;;;;;;21.84;30.19;101036.97;4505790;28;20041;-64
2023/10/17 00:22:36;;;;;;;1.67;1.40;;;;;;;21.84;30.20;101041.88;4505088;28;20582;-64
2023/10/17 00:24:46;;;;;;;1.50;1.30;;;;;;;21.84;30.63;101039.84;4505993;28;20046;-64
2023/10/17 00:26:57;;;;;;;1.40;1.30;;;;;;;21.80;30.65;101027.38;4504939;28;20034;-64
2023/10/17 00:29:08;;;;;;;1.63;1.20;;;;;;;21.83;30.46;101035.28;4504936;28;20501;-65
2023/10/17 00:31:21;;;;;;;1.30;1.20;;;;;;;21.83;30.56;101037.31;4488154;28;20049;-64
2023/10/17 00:33:32;;;;;;;1.10;1.00;;;;;;;21.82;30.54;101027.84;4505752;28;20893;-64
2023/10/17 00:35:49;;;;;;;1.30;1.08;;;;;;;21.84;30.22;101044.72;4504663;28;20209;-64
2023/10/17 00:38:00;;;;;;;1.30;1.20;;;;;;;21.79;30.40;101022.84;4488168;28;20537;-64
2023/10/17 00:40:34;;;;;;;1.27;1.17;;;;;;;21.80;30.34;101033.13;4504854;28;20038;-64
2023/10/17 00:42:44;;;;;;;1.20;1.10;;;;;;;21.81;30.35;101033.97;4504446;28;20062;-64
2023/10/17 00:44:55;;;;;;;1.30;1.20;;;;;;;21.81;30.24;101034.81;4505409;28;20037;-64
2023/10/17 00:47:08;;;;;;;1.75;1.17;;;;;;;21.78;30.18;101040.44;4471836;28;20044;-64
2023/10/17 00:49:21;;;;;;;1.27;1.17;;;;;;;21.79;30.14;101034.34;4502763;28;20045;-64
2023/10/17 00:51:32;;;;;;;1.30;1.20;;;;;;;21.80;29.93;101033.13;4502815;28;20034;-64
2023/10/17 00:53:42;;;;;;;1.40;1.30;;;;;;;21.80;29.96;101036.00;4506064;28;20033;-64
2023/10/17 00:55:56;;;;;;;1.75;1.40;;;;;;;21.79;29.74;101031.47;4504410;28;20042;-64
2023/10/17 00:58:06;;;;;;;1.60;1.40;;;;;;;21.79;29.97;101030.63;4503369;28;20680;-64
2023/10/17 01:00:23;;;;;;;1.55;1.45;;;;;;;21.78;29.68;101024.06;4489587;28;20110;-64
2023/10/17 01:02:44;;;;;;;1.50;1.40;;;;;;;21.77;29.87;101028.13;4504996;28;20030;-64
2023/10/17 01:04:59;;;;;;;1.52;1.42;;;;;;;21.79;29.74;101025.72;4505642;28;20061;-64
2023/10/17 01:07:11;;;;;;;1.50;1.40;;;;;;;21.76;29.35;101025.59;4504971;28;20022;-64
2023/10/17 01:09:25;;;;;;;1.33;1.23;;;;;;;21.75;29.91;101024.78;4505284;28;20049;-64
2023/10/17 01:11:38;;;;;;;1.73;1.30;;;;;;;21.73;30.09;101027.16;4505828;28;20030;-64
2023/10/17 01:13:54;;;;;;;1.33;1.20;;;;;;;21.77;29.42;101033.84;4505465;28;20125;-64
2023/10/17 01:16:10;;;;;;;1.40;1.30;;;;;;;21.77;29.48;101033.03;4507198;28;20625;-64
2023/10/17 01:18:20;;;;;;;1.10;1.00;;;;;;;21.65;29.71;101016.66;4507651;28;20592;-64
2023/10/17 01:20:32;;;;;;;1.30;1.20;;;;;;;21.74;29.76;101028.81;4490754;28;20137;-64
2023/10/17 01:22:44;;;;;;;1.63;1.33;;;;;;;21.75;29.96;101033.41;4490044;28;20038;-64
2023/10/17 01:24:56;;;;;;;1.30;1.20;;;;;;;21.70;29.71;101025.00;4508331;28;20037;-64
2023/10/17 01:27:06;;;;;;;1.77;1.35;;;;;;;21.73;29.67;101032.91;4490563;28;20097;-64
2023/10/17 01:29:18;;;;;;;1.30;1.20;;;;;;;21.72;29.68;101031.22;4491064;28;20161;-64
2023/10/17 01:31:30;;;;;;;1.27;1.17;;;;;;;21.70;29.78;101022.13;4507922;28;20057;-64
2023/10/17 01:33:43;;;;;;;1.23;1.13;;;;;;;21.71;29.72;101023.81;4490207;28;20113;-64
2023/10/17 01:35:54;;;;;;;1.50;1.40;;;;;;;21.73;29.78;101024.28;4507703;28;20109;-64
2023/10/17 01:38:05;;;;;;;2.10;1.50;;;;;;;21.71;29.63;101018.06;4508347;28;20029;-64
2023/10/17 01:40:22;;;;;;;1.42;1.30;;;;;;;21.69;29.96;101020.44;4506883;28;20048;-64
2023/10/17 01:42:33;;;;;;;1.60;1.45;;;;;;;21.73;29.90;101015.66;4508503;28;20032;-64
2023/10/17 01:44:43;;;;;;;1.50;1.40;;;;;;;21.72;30.23;101019.72;4505621;28;20052;-64
2023/10/17 01:46:53;;;;;;;1.77;1.50;;;;;;;21.71;30.54;101018.06;4508318;28;20572;-64
2023/10/17 01:49:10;;;;;;;1.30;1.20;;;;;;;21.71;30.14;101020.06;4505320;28;20026;-64
2023/10/17 01:51:23;;;;;;;1.65;1.50;;;;;;;21.71;30.47;101018.06;4506535;28;20034;-64
2023/10/17 01:53:34;;;;;;;1.52;1.42;;;;;;;21.59;30.31;100998.00;4507912;28;20120;-64
2023/10/17 01:56:02;;;;;;;1.58;1.48;;;;;;;21.62;30.22;101000.16;4506587;28;20038;-64
2023/10/17 01:58:15;;;;;;;;;;;;;;;21.71;30.38;101023.81;4490514;28;20073;-64
2023/10/17 02:02:45;;;;;;;1.92;1.40;;;;;;;21.65;30.57;101001.44;4506728;28;20125;-64
2023/10/17 02:04:57;;;;;;;1.77;1.50;;;;;;;21.67;30.53;101011.38;4506311;28;20029;-64
2023/10/17 02:07:08;;;;;;;1.58;1.42;;;;;;;21.68;30.89;101010.16;4505950;28;20038;-64
2023/10/17 02:11:43;;;;;;;1.63;1.40;;;;;;;21.67;30.71;101017.13;4489450;28;20042;-64
2023/10/17 02:13:59;;;;;;;1.65;1.50;;;;;;;21.66;30.46;101012.56;4506954;28;20017;-64
2023/10/17 02:16:10;;;;;;;1.95;1.60;;;;;;;21.64;30.54;101006.38;4506333;28;20038;-64
2023/10/17 02:18:20;;;;;;;1.85;1.70;;;;;;;21.64;30.70;101006.38;4506040;28;20047;-64
2023/10/17 02:20:34;;;;;;;1.50;1.40;;;;;;;21.65;30.59;101008.03;4505044;28;20049;-64
2023/10/17 02:22:46;;;;;;;1.58;1.48;;;;;;;21.65;30.24;101013.78;4505575;28;20057;-64
2023/10/17 02:24:57;;;;;;;1.80;1.63;;;;;;;21.64;30.27;101011.25;4506420;28;20080;-64
2023/10/17 02:27:09;;;;;;;1.50;1.40;;;;;;;21.64;30.48;101017.00;4486699;28;20077;-64
2023/10/17 02:29:23;;;;;;;1.88;1.60;;;;;;;21.57;30.77;100996.69;4506247;28;20042;-64
2023/10/17 02:31:34;;;;;;;1.95;1.67;;;;;;;21.61;30.69;101012.00;4506748;28;20042;-64
2023/10/17 02:33:44;;;;;;;1.65;1.40;;;;;;;21.64;30.56;101012.13;4507466;28;20117;-64
2023/10/17 02:36:13;;;;;;;2.03;1.65;;;;;;;21.57;30.39;101005.28;4506331;28;20490;-63
2023/10/17 02:38:23;;;;;;;2.28;1.60;;;;;;;21.63;30.45;101010.41;4488462;28;20171;-63
2023/10/17 02:40:34;;;;;;;1.98;1.50;;;;;;;21.57;30.06;100994.66;4507054;28;20038;-64
2023/10/17 02:42:45;;;;;;;1.85;1.70;;;;;;;21.60;30.62;100995.94;4507116;28;20918;-63
2023/10/17 02:44:55;;;;;;;1.77;1.67;;;;;;;21.61;30.36;100998.44;4505113;28;20113;-64
2023/10/17 02:47:12;;;;;;;1.90;1.60;;;;;;;21.60;30.53;100987.31;4506997;28;20038;-63
2023/10/17 02:49:24;;;;;;;1.60;1.50;;;;;;;21.61;30.36;100994.75;4505800;28;20148;-64
2023/10/17 02:51:36;;;;;;;1.70;1.60;;;;;;;21.59;30.31;100985.66;4489770;28;20051;-63
2023/10/17 02:53:53;;;;;;;1.90;1.80;;;;;;;21.58;30.78;100981.13;4506184;28;20041;-64
2023/10/17 02:56:18;;;;;;;1.50;1.40;;;;;;;21.61;30.35;100995.56;4506077;28;20536;-64
2023/10/17 02:58:28;;;;;;;1.80;1.60;;;;;;;21.58;30.28;100984.81;4506976;28;20084;-64
2023/10/17 03:00:44;;;;;;;1.70;1.50;;;;;;;21.61;30.56;100997.63;4506758;28;20089;-63
2023/10/17 03:02:58;;;;;;;1.63;1.52;;;;;;;21.59;30.41;100989.38;4507122;28;20042;-64
2023/10/17 03:05:11;;;;;;;1.67;1.50;;;;;;;21.58;30.35;100984.81;4488832;28;20042;-64
2023/10/17 03:07:21;;;;;;;1.67;1.58;;;;;;;21.58;30.15;100984.81;4506725;28;20049;-64
2023/10/17 03:09:33;;;;;;;2.13;1.48;;;;;;;21.58;30.25;100990.56;4506862;28;20034;-64
2023/10/17 03:11:51;;;;;;;1.55;1.45;;;;;;;21.57;30.46;100991.78;4488664;28;20062;-64
2023/10/17 03:14:12;;;;;;;1.50;1.40;;;;;;;21.59;30.17;100995.13;4488368;28;20125;-64
2023/10/17 03:16:26;;;;;;;1.70;1.60;;;;;;;21.57;30.15;100996.69;4505869;28;20102;-64
2023/10/17 03:18:37;;;;;;;1.73;1.48;;;;;;;21.55;30.55;100997.03;4488523;28;20973;-64
2023/10/17 03:20:51;;;;;;;1.50;1.40;;;;;;;21.57;30.39;100993.81;4505549;28;20084;-64
2023/10/17 03:23:03;;;;;;;1.70;1.60;;;;;;;21.53;29.96;100996.56;4488254;28;20042;-64
2023/10/17 03:25:20;;;;;;;1.95;1.70;;;;;;;21.51;30.34;100990.38;4488654;28;20098;-64
2023/10/17 03:27:36;;;;;;;1.73;1.63;;;;;;;21.52;30.26;100996.94;4506582;28;20526;-64
2023/10/17 03:29:47;;;;;;;;;;;;;;;21.57;30.23;101005.28;4488902;28;20141;-64
2023/10/17 03:32:03;;;;;;;1.67;1.58;;;;;;;21.57;30.15;101006.13;4488724;28;19955;-64
2023/10/17 03:34:19;;;;;;;1.73;1.60;;;;;;;21.52;30.26;100997.78;4506416;28;20671;-64
2023/10/17 03:36:49;;;;;;;1.88;1.70;;;;;;;21.52;29.75;100997.78;4506413;28;20042;-64
2023/10/17 03:39:18;;;;;;;1.80;1.70;;;;;;;21.54;29.76;101006.88;4505311;28;20102;-63
2023/10/17 03:41:28;;;;;;;1.77;1.65;;;;;;;21.49;29.96;100983.28;4487317;28;20042;-63
2023/10/17 03:43:39;;;;;;;2.63;1.75;;;;;;;21.54;30.22;101006.88;4506156;28;20034;-64
2023/10/17 03:45:53;;;;;;;2.20;1.73;;;;;;;21.51;29.99;100998.97;4506581;28;20034;-64
2023/10/17 03:48:13;;;;;;;1.98;1.80;;;;;;;21.51;30.19;100990.38;4505647;28;20022;-64
2023/10/17 03:52:54;;;;;;;1.67;1.50;;;;;;;21.52;30.10;100997.78;4505932;28;20133;-63
2023/10/17 03:55:10;;;;;;;1.83;1.73;;;;;;;21.53;30.22;101004.38;4506847;28;20081;-64
2023/10/17 03:57:25;;;;;;;1.90;1.70;;;;;;;21.51;30.39;100992.41;4506162;28;20030;-64
2023/10/17 03:59:38;;;;;;;1.90;1.70;;;;;;;21.47;30.07;100983.66;4506426;28;20511;-64
2023/10/17 04:01:49;;;;;;;1.83;1.73;;;;;;;21.49;30.19;100986.16;4505553;28;20133;-64
2023/10/17 04:04:02;;;;;;;1.70;1.60;;;;;;;21.51;30.16;100990.38;4506515;28;20129;-65
2023/10/17 04:08:30;;;;;;;2.38;1.90;;;;;;;21.49;30.32;100986.16;4506338;28;20038;-64
2023/10/17 04:10:49;;;;;;;2.00;1.80;;;;;;;21.51;30.43;100986.66;4506120;28;20570;-64
2023/10/17 04:13:23;;;;;;;2.00;1.77;;;;;;;21.49;30.26;100981.28;4505943;28;20847;-64
2023/10/17 04:15:33;;;;;;;2.33;2.13;;;;;;;21.46;30.34;100987.75;4506188;28;20100;-64
2023/10/17 04:17:46;;;;;;;3.20;2.90;;;;;;;21.47;30.34;100977.91;4504874;28;20521;-64
2023/10/17 04:20:11;;;;;;;2.20;2.00;;;;;;;21.46;30.86;100981.16;4505913;28;20073;-64
2023/10/17 04:22:21;;;;;;;2.10;1.90;;;;;;;21.44;30.34;100977.81;4506389;28;20073;-64
2023/10/17 04:24:34;;;;;;;2.10;1.85;;;;;;;21.47;30.52;100983.66;4506221;28;20153;-64
2023/10/17 04:26:45;;;;;;;2.08;1.83;;;;;;;21.46;30.67;100975.41;4505972;28;20121;-64
2023/10/17 04:28:56;;;;;;;2.08;1.88;;;;;;;21.49;31.04;100981.28;4506024;28;20125;-64
2023/10/17 04:31:07;;;;;;;1.90;1.80;;;;;;;21.45;30.91;100974.59;4504442;28;20085;-64
2023/10/17 04:33:20;;;;;;;2.20;1.98;;;;;;;21.45;31.14;100980.34;4505473;28;20129;-64
2023/10/17 04:35:32;;;;;;;1.95;1.85;;;;;;;21.45;30.68;100986.09;4503944;28;20038;-64
2023/10/17 04:37:45;;;;;;;1.90;1.80;;;;;;;21.43;31.00;100981.88;4488590;28;20129;-64
2023/10/17 04:40:27;;;;;;;2.30;2.10;;;;;;;21.43;30.52;100981.88;4505066;28;20049;-64
2023/10/17 04:45:06;;;;;;;2.40;2.20;;;;;;;21.44;30.67;100984.41;4505068;28;20094;-64
2023/10/17 04:49:36;;;;;;;3.10;1.83;;;;;;;21.41;30.93;100979.38;4507132;28;20046;-64
2023/10/17 04:57:21;;;;;;;2.20;2.00;;;;;;;21.44;30.67;100990.13;4508562;28;20935;-64
2023/10/17 04:59:27;;;;;;;2.20;2.00;;;;;;;21.42;30.45;101001.16;4502596;28;20046;-64
2023/10/17 05:02:14;;;;;;;2.08;1.88;;;;;;;21.43;30.80;100999.13;4508372;28;20035;-64
2023/10/17 05:07:13;;;;;;;2.05;1.88;;;;;;;21.39;30.59;100986.69;4507962;28;20121;-64
2023/10/17 05:09:00;;;;;;;2.13;1.92;;;;;;;21.39;30.15;100990.38;4507667;28;20046;-64
2023/10/17 06:18:26;;;;;;;2.65;2.10;;;;;;;21.31;30.71;101048.78;4506951;28;20134;-65
2023/10/17 06:23:24;;;;;;;2.63;2.10;;;;;;;21.32;31.02;101050.47;4507036;28;20038;-65
2023/10/17 06:30:47;;;;;;;2.47;2.28;;;;;;;21.31;31.08;101060.28;4506729;28;20029;-65
2023/10/17 06:35:31;;;;;;;3.25;2.33;;;;;;;21.31;30.89;101059.47;4506776;28;20073;-65
2023/10/17 06:37:43;;;;;;;2.95;2.30;;;;;;;21.29;31.17;101045.47;4505153;28;20026;-65
2023/10/17 06:39:58;;;;;;;2.67;2.13;;;;;;;21.29;30.71;101050.38;4506501;28;20040;-65
2023/10/17 06:42:14;;;;;;;2.25;2.05;;;;;;;21.30;31.29;101046.28;4488733;28;20049;-65
2023/10/17 06:44:26;;;;;;;2.67;2.20;;;;;;;21.26;31.27;101043.31;4507650;28;20901;-65
2023/10/17 06:46:55;;;;;;;2.55;2.15;;;;;;;21.30;31.59;101047.13;4506543;28;20034;-65
2023/10/17 06:49:08;;;;;;;2.10;1.90;;;;;;;21.28;31.75;101046.66;4506700;28;20061;-65
2023/10/17 06:53:28;;;;;;;2.50;2.10;;;;;;;21.29;31.76;101044.63;4507017;28;20068;-65
2023/10/17 06:55:42;;;;;;;2.35;2.15;;;;;;;21.24;31.74;101048.56;4506431;28;20092;-65
2023/10/17 06:57:55;;;;;;;2.95;2.30;;;;;;;21.24;31.79;101048.56;4506584;28;20060;-65
2023/10/17 07:00:16;;;;;;;2.78;2.42;;;;;;;21.24;32.33;101042.84;4506425;28;20037;-65
2023/10/17 07:02:41;;;;;;;2.58;2.38;;;;;;;21.28;32.24;101057.31;4506929;28;20038;-65
2023/10/17 07:04:52;;;;;;;2.30;2.00;;;;;;;21.25;32.07;101050.25;4505969;28;20042;-65
2023/10/17 07:07:05;;;;;;;3.17;2.22;;;;;;;21.23;31.65;101046.88;4505432;28;20034;-65
2023/10/17 07:09:18;;;;;;;2.67;2.40;;;;;;;21.23;32.42;101046.88;4489469;28;20401;-65
2023/10/17 07:11:29;;;;;;;3.03;2.15;;;;;;;21.26;32.62;101040.44;4506534;28;20029;-65
2023/10/17 07:13:56;;;;;;;2.40;2.20;;;;;;;21.28;32.70;101058.13;4506348;28;20042;-65
2023/10/17 07:16:12;;;;;;;2.53;2.20;;;;;;;21.26;33.27;101053.97;4472341;28;20039;-65
2023/10/17 07:23:27;;;;;;;2.30;2.10;;;;;;;21.25;33.46;101055.97;4504982;28;20038;-65
2023/10/17 07:25:38;;;;;;;2.72;2.30;;;;;;;21.22;34.02;101050.97;4506432;28;20022;-65
2023/10/17 07:27:51;;;;;;;3.15;2.35;;;;;;;21.20;33.74;101047.59;4505252;28;20494;-65
2023/10/17 07:30:49;;;;;;;2.53;2.20;;;;;;;21.24;34.06;101051.44;4507050;28;20112;-65
2023/10/17 07:32:45;;;;;;;2.60;2.40;;;;;;;21.25;34.51;101055.97;4503078;28;20831;-64
2023/10/17 07:34:58;;;;;;;3.30;2.40;;;;;;;21.23;34.07;101057.56;4488404;28;20133;-65
2023/10/17 07:39:36;;;;;;;2.80;2.15;;;;;;;21.24;34.80;101059.22;4506612;28;20022;-65
2023/10/17 07:41:55;;;;;;;2.42;2.20;;;;;;;21.23;34.37;101058.38;4488797;28;20116;-65
2023/10/17 07:44:09;;;;;;;3.42;2.50;;;;;;;21.24;34.71;101059.22;4488304;28;20042;-64
2023/10/17 07:46:26;;;;;;;2.67;2.30;;;;;;;21.24;34.84;101059.22;4504247;28;20907;-65
2023/10/17 07:48:37;;;;;;;2.58;2.13;;;;;;;21.22;34.42;101056.72;4488456;28;20030;-64
2023/10/17 07:50:53;;;;;;;2.40;2.00;;;;;;;21.24;34.75;101065.81;4487550;28;20097;-64
2023/10/17 07:53:05;;;;;;;3.17;2.63;;;;;;;21.21;34.46;101048.47;4504693;28;20121;-64
2023/10/17 07:55:46;;;;;;;2.65;2.33;;;;;;;21.22;35.01;101050.97;4505192;28;20038;-64
2023/10/17 07:57:52;;;;;;;3.03;2.25;;;;;;;21.23;34.61;101046.88;4502631;28;20037;-64
2023/10/17 08:00:24;;;;;;;2.40;2.20;;;;;;;21.23;35.32;101048.94;4504553;28;20124;-64
2023/10/17 08:02:34;;;;;;;2.60;2.00;;;;;;;21.21;35.07;101055.03;4505531;28;20072;-64
2023/10/17 08:04:44;;;;;;;2.33;2.10;;;;;;;21.22;35.13;101050.97;4506562;28;20473;-66
2023/10/17 08:06:56;;;;;;;2.25;1.90;;;;;;;21.17;35.15;101048.34;4505922;28;20115;-64
2023/10/17 08:11:36;;;;;;;2.45;1.92;;;;;;;21.23;35.50;101052.63;4503574;28;20034;-63
2023/10/17 08:13:48;;;;;;;2.00;1.70;;;;;;;21.23;35.33;101049.75;4490905;28;20089;-63
2023/10/17 08:16:11;;;;;;;2.75;2.10;;;;;;;21.23;35.27;101055.50;4504310;28;20026;-63
2023/10/17 08:18:22;;;;;;;2.08;1.83;;;;;;;21.20;35.49;101047.59;4505089;28;20908;-63
2023/10/17 08:20:45;;;;;;;2.15;1.75;;;;;;;21.23;35.43;101051.81;4503578;28;21309;-63
2023/10/17 08:22:58;;;;;;;2.28;1.65;;;;;;;21.17;35.30;101041.78;4504251;28;20042;-63
2023/10/17 08:25:13;;;;;;;2.22;1.70;;;;;;;21.22;35.19;101058.72;4507431;28;21550;-63
2023/10/17 08:29:34;;;;;;;2.22;1.80;;;;;;;21.18;35.90;101046.31;4508368;28;20029;-63
2023/10/17 08:31:45;;;;;;;1.90;1.70;;;;;;;21.20;35.75;101041.88;4508574;28;20071;-63
2023/10/17 08:36:13;;;;;;;3.00;2.03;;;;;;;21.18;35.25;101050.03;4508957;28;20070;-63
2023/10/17 08:38:24;;;;;;;2.17;1.90;;;;;;;21.20;35.69;101041.88;4508220;28;20022;-63
2023/10/17 08:42:50;;;;;;;1.63;1.52;;;;;;;21.17;35.28;101033.16;4490009;28;20038;-63
2023/10/17 08:45:04;;;;;;;1.70;1.60;;;;;;;21.17;35.80;101030.28;4506479;28;20045;-63
2023/10/17 08:47:18;;;;;;;1.75;1.58;;;;;;;21.18;35.65;101035.66;4508162;28;20038;-63
2023/10/17 08:49:28;;;;;;;1.88;1.70;;;;;;;21.19;36.00;101040.22;4506625;28;20035;-63
2023/10/17 08:51:39;;;;;;;1.55;1.30;;;;;;;21.18;36.17;101035.66;4508555;28;20034;-63
2023/10/17 08:53:49;;;;;;;1.40;1.30;;;;;;;21.19;36.12;101034.47;4508225;28;20465;-63
2023/10/17 08:56:02;;;;;;;1.98;1.60;;;;;;;21.20;36.47;101035.31;4507508;28;20022;-64
2023/10/17 08:58:14;;;;;;;2.25;1.50;;;;;;;21.18;36.06;101031.97;4490330;28;20821;-63
2023/10/17 09:00:49;;;;;;;1.60;1.30;;;;;;;21.18;36.11;101023.34;4508219;28;20161;-63
2023/10/17 09:03:02;;;;;;;1.50;1.23;;;;;;;21.18;35.69;101034.81;4481899;28;20897;-63
2023/10/17 09:05:27;;;;;;;1.88;1.33;;;;;;;21.16;36.11;101026.56;4482698;28;20133;-63
2023/10/17 09:07:43;;;;;;;1.63;1.45;;;;;;;21.12;35.80;101027.66;4489929;28;20035;-63
2023/10/17 09:09:55;;;;;;;1.42;1.33;;;;;;;21.17;35.75;101030.28;4508632;28;20030;-63
2023/10/17 09:12:21;;;;;;;1.50;1.30;;;;;;;21.17;35.56;101036.84;4508850;28;20124;-63
2023/10/17 09:14:37;;;;;;;1.48;1.20;;;;;;;21.18;35.69;101038.53;4508080;28;20734;-63
2023/10/17 09:19:47;;;;;;;1.35;1.20;;;;;;;21.16;35.88;101046.66;4507900;28;20234;-64
2023/10/17 09:21:59;;;;;;;1.48;1.38;;;;;;;21.16;35.91;101040.94;4506778;28;20145;-63
2023/10/17 09:24:29;;;;;;;1.80;1.33;;;;;;;21.15;35.66;101042.13;4508116;28;20061;-64
2023/10/17 09:26:46;;;;;;;1.30;1.20;;;;;;;21.12;36.01;101028.47;4507498;28;20101;-63
2023/10/17 09:29:00;;;;;;;1.20;1.10;;;;;;;21.17;36.10;101048.34;4507540;28;20041;-63
2023/10/17 09:31:15;;;;;;;1.60;1.30;;;;;;;21.15;36.10;101036.41;4507538;28;20041;-63
2023/10/17 09:33:36;;;;;;;1.50;1.40;;;;;;;21.17;36.05;101041.78;4507508;28;20041;-63
2023/10/17 09:35:48;;;;;;;1.50;1.35;;;;;;;21.12;36.36;101030.53;4506449;28;20030;-63
2023/10/17 09:38:00;;;;;;;1.35;1.25;;;;;;;21.17;35.96;101036.84;4507222;28;20041;-63
2023/10/17 09:40:13;;;;;;;1.25;1.15;;;;;;;21.15;36.62;101032.69;4506498;28;20054;-64
2023/10/17 09:42:24;;;;;;;1.42;1.10;;;;;;;21.19;36.43;101040.22;4481911;28;20046;-63
2023/10/17 09:44:35;;;;;;;1.45;1.20;;;;;;;21.18;36.64;101038.53;4507458;28;20033;-63
2023/10/17 09:46:50;;;;;;;1.20;1.10;;;;;;;21.09;36.77;101022.66;4507753;28;20041;-63
2023/10/17 09:49:02;;;;;;;1.27;1.17;;;;;;;21.15;36.83;101033.53;4489965;28;20104;-63
2023/10/17 09:51:26;;;;;;;2.47;1.10;;;;;;;21.16;37.01;101029.44;4489396;28;20038;-63
2023/10/17 09:53:39;;;;;;;1.27;1.10;;;;;;;21.17;36.77;101030.28;4507023;28;20088;-63
2023/10/17 09:55:50;;;;;;;1.35;1.25;;;;;;;21.12;36.98;101017.00;4506829;28;20029;-64
2023/10/17 09:58:08;;;;;;;1.20;1.10;;;;;;;21.13;36.96;101018.69;4506489;28;20042;-63
2023/10/17 10:00:29;;;;;;;1.20;1.10;;;;;;;21.16;36.35;101023.72;4506979;28;20038;-65
2023/10/17 10:02:41;;;;;;;1.35;1.05;;;;;;;21.15;36.42;101019.19;4506576;28;20100;-64
2023/10/17 10:04:52;;;;;;;1.50;1.27;;;;;;;21.17;36.50;101015.94;4505994;28;20033;-64
2023/10/17 10:07:21;;;;;;;1.10;1.00;;;;;;;21.17;36.53;101018.81;4506397;28;20046;-64
2023/10/17 10:09:36;;;;;;;1.40;1.20;;;;;;;21.17;36.60;101011.00;4489360;28;20938;-64
2023/10/17 10:11:50;;;;;;;1.25;1.10;;;;;;;21.17;36.01;101013.88;4505083;28;20064;-64
2023/10/17 10:14:08;;;;;;;1.95;1.00;;;;;;;21.18;36.55;101012.72;4506832;28;20045;-64
2023/10/17 10:16:19;;;;;;;1.33;1.10;;;;;;;21.17;36.83;101002.41;4506366;28;20050;-64
2023/10/17 10:18:35;;;;;;;1.13;1.02;;;;;;;21.17;36.53;100999.53;4505696;28;20443;-64
2023/10/17 10:20:57;;;;;;;1.50;1.20;;;;;;;21.15;36.76;101004.81;4505685;28;20140;-64
2023/10/17 10:23:09;;;;;;;1.05;0.95;;;;;;;21.15;36.82;101010.56;4506381;28;20036;-64
2023/10/17 10:25:20;;;;;;;1.20;1.05;;;;;;;21.17;36.66;101011.00;4489448;28;20042;-64
2023/10/17 10:27:31;;;;;;;1.30;1.20;;;;;;;21.14;36.78;101008.88;4506499;28;20034;-64
2023/10/17 10:29:42;;;;;;;1.30;1.10;;;;;;;21.16;36.93;101012.22;4505392;28;20038;-64
2023/10/17 10:31:53;;;;;;;1.30;1.08;;;;;;;21.17;36.92;101008.16;4505647;28;20860;-64
2023/10/17 10:34:03;;;;;;;1.27;1.17;;;;;;;21.15;37.31;100999.09;4506473;28;20034;-64
2023/10/17 10:36:16;;;;;;;1.00;0.90;;;;;;;21.18;36.98;101004.09;4505980;28;20033;-64
2023/10/17 10:38:30;;;;;;;1.10;1.00;;;;;;;21.17;36.73;100995.84;4505789;28;20184;-64
2023/10/17 10:40:40;;;;;;;1.42;1.20;;;;;;;21.19;36.94;100994.28;4504779;28;20625;-64
2023/10/17 10:42:59;;;;;;;1.27;1.13;;;;;;;21.19;36.76;100988.53;4506605;28;20034;-64
2023/10/17 10:45:38;;;;;;;1.20;1.10;;;;;;;21.20;37.10;100995.13;4481315;28;20087;-64
2023/10/17 10:47:48;;;;;;;;;;;;;;;21.20;36.81;100995.13;4505273;28;20045;-64
2023/10/17 10:50:02;;;;;;;1.38;1.08;;;;;;;21.19;36.74;100987.69;4506897;28;19928;-64
2023/10/17 10:52:12;;;;;;;1.40;1.05;;;;;;;21.17;36.76;100975.75;4506803;28;20038;-64
2023/10/17 10:54:50;;;;;;;1.10;1.00;;;;;;;21.15;36.82;100973.25;4506834;28;20487;-64
2023/10/17 10:57:00;;;;;;;1.45;1.20;;;;;;;21.15;36.61;100967.50;4502709;28;20085;-64
2023/10/17 10:59:19;;;;;;;1.00;0.90;;;;;;;21.20;36.74;100975.84;4506078;28;20116;-64
2023/10/17 11:01:30;;;;;;;1.30;1.10;;;;;;;21.22;37.09;100975.47;4505110;28;20041;-64
2023/10/17 11:03:42;;;;;;;1.20;1.10;;;;;;;21.18;36.80;100972.53;4506542;28;20033;-64
2023/10/17 11:06:02;;;;;;;1.77;1.17;;;;;;;21.21;37.02;100974.66;4506249;28;20042;-64
2023/10/17 11:08:15;;;;;;;1.20;1.00;;;;;;;21.19;36.90;100967.59;4505874;28;20065;-64
2023/10/17 11:10:26;;;;;;;1.10;1.00;;;;;;;21.23;37.08;100977.16;4504447;28;20030;-64
2023/10/17 11:12:38;;;;;;;1.33;1.20;;;;;;;21.25;36.52;100980.53;4506294;28;20069;-64
2023/10/17 11:15:09;;;;;;;1.20;1.10;;;;;;;21.22;37.11;100973.44;4506683;28;21207;-64
2023/10/17 11:17:23;;;;;;;1.10;1.00;;;;;;;21.24;37.39;100973.94;4505160;28;20233;-64
2023/10/17 11:19:34;;;;;;;1.10;1.00;;;;;;;21.23;37.13;100969.38;4487385;28;20125;-64
2023/10/17 11:21:50;;;;;;;1.70;1.10;;;;;;;21.24;36.45;100973.94;4505334;28;20418;-64
2023/10/17 11:24:04;;;;;;;1.90;0.95;;;;;;;21.25;36.89;100972.72;4488944;28;20049;-64
2023/10/17 11:26:17;;;;;;;0.95;0.90;;;;;;;21.26;36.99;100970.69;4487998;28;20037;-64
2023/10/17 11:28:28;;;;;;;1.23;1.10;;;;;;;21.29;36.79;100973.69;4505523;28;20045;-64
2023/10/17 11:30:40;;;;;;;1.20;1.10;;;;;;;21.30;36.85;100975.34;4504286;28;20091;-64
2023/10/17 11:33:00;;;;;;;1.67;1.10;;;;;;;21.27;37.14;100958.84;4505211;28;20157;-64
2023/10/17 11:35:29;;;;;;;1.23;1.08;;;;;;;21.32;36.88;100970.09;4506171;28;20084;-64
2023/10/17 11:37:47;;;;;;;1.15;1.00;;;;;;;21.32;36.50;100964.34;4481204;28;20649;-64
2023/10/17 11:40:15;;;;;;;1.50;1.20;;;;;;;21.28;36.46;100951.91;4505237;28;20053;-65
2023/10/17 11:42:33;;;;;;;0.88;0.80;;;;;;;21.35;37.01;100957.03;4505516;28;20035;-65
2023/10/17 11:44:46;;;;;;;1.50;1.10;;;;;;;21.28;36.31;100954.78;4505079;28;20034;-64
2023/10/17 11:47:02;;;;;;;1.10;1.00;;;;;;;21.37;36.48;100969.00;4504409;28;20045;-64
2023/10/17 11:49:14;;;;;;;1.60;1.45;;;;;;;21.38;36.26;100976.41;4506097;28;20037;-64
2023/10/17 11:51:28;;;;;;;1.20;1.10;;;;;;;21.36;35.84;100970.19;4505809;28;20037;-64
2023/10/17 11:54:05;;;;;;;0.98;0.88;;;;;;;21.39;36.17;100964.53;4505842;28;20519;-64
2023/10/17 11:56:20;;;;;;;1.20;1.10;;;;;;;21.38;36.04;100960.00;4503467;28;20038;-64
2023/10/17 11:58:32;;;;;;;1.02;0.93;;;;;;;21.36;36.13;100948.03;4503625;28;20699;-64
2023/10/17 12:00:43;;;;;;;1.15;1.05;;;;;;;21.39;36.21;100949.38;4505800;28;20124;-64
2023/10/17 12:02:53;;;;;;;1.23;1.02;;;;;;;21.40;36.35;100949.00;4504452;28;20162;-64
2023/10/17 12:05:04;;;;;;;1.15;1.05;;;;;;;21.38;36.13;100937.03;4505738;28;20480;-64
2023/10/17 12:07:15;;;;;;;0.95;0.90;;;;;;;21.38;36.39;100939.91;4505145;28;20038;-64
2023/10/17 12:09:25;;;;;;;1.30;1.20;;;;;;;21.42;35.72;100943.72;4505353;28;20483;-64
2023/10/17 12:11:36;;;;;;;1.23;1.13;;;;;;;21.42;35.89;100935.09;4504300;28;20450;-64
2023/10/17 12:13:46;;;;;;;0.80;0.80;;;;;;;21.33;35.81;100917.19;4505767;28;20169;-64
2023/10/17 12:16:02;;;;;;;1.02;0.80;;;;;;;21.44;35.47;100937.59;4504711;28;20533;-64
2023/10/17 12:18:12;;;;;;;1.25;0.90;;;;;;;21.43;36.06;100928.16;4505011;28;20037;-64
2023/10/17 12:20:26;;;;;;;0.95;0.85;;;;;;;21.41;35.71;100926.84;4503782;28;20080;-64
2023/10/17 12:22:37;;;;;;;1.02;0.93;;;;;;;21.44;35.27;100921.22;4504509;28;20045;-64
2023/10/17 12:24:47;;;;;;;1.63;0.80;;;;;;;21.45;35.50;100920.03;4505794;28;20801;-64
2023/10/17 12:26:58;;;;;;;1.00;0.80;;;;;;;21.45;35.03;100910.56;4505297;28;20042;-64
2023/10/17 12:29:11;;;;;;;1.63;0.80;;;;;;;21.46;35.10;100913.06;4487317;28;20038;-64